createdAt,value
2023-05-08T00:00:57.823Z,0.4230
2023-05-08T00:01:58.909Z,0.4237
2023-05-08T00:03:00.213Z,0.4236
2023-05-08T00:04:01.194Z,0.4226
2023-05-08T00:05:02.275Z,0.4228
2023-05-08T00:06:03.312Z,0.4226
2023-05-08T00:07:04.416Z,0.4224
2023-05-08T00:08:05.579Z,0.4234
2023-05-08T00:09:06.637Z,0.4247
2023-05-08T00:10:07.745Z,0.4270
2023-05-08T00:11:08.850Z,0.4275
2023-05-08T00:12:09.941Z,0.4267
2023-05-08T00:13:11.078Z,0.4272
2023-05-08T00:14:12.123Z,0.4279
2023-05-08T00:15:13.234Z,0.4276
2023-05-08T00:16:14.398Z,0.4280
2023-05-08T00:17:15.427Z,0.4294
2023-05-08T00:18:16.521Z,0.4288
2023-05-08T00:19:17.615Z,0.4283
2023-05-08T00:20:18.721Z,0.4288
2023-05-08T00:21:19.834Z,0.4283
2023-05-08T00:22:20.930Z,0.4275
2023-05-08T00:23:22.047Z,0.4284
2023-05-08T00:24:23.111Z,0.4310
2023-05-08T00:25:24.211Z,0.4320
2023-05-08T00:26:25.325Z,0.4335
2023-05-08T00:27:26.402Z,0.4345
2023-05-08T00:28:27.514Z,0.4350
2023-05-08T00:29:28.606Z,0.4367
2023-05-08T00:30:29.733Z,0.4368
2023-05-08T00:31:30.823Z,0.4361
2023-05-08T00:32:31.899Z,0.4359
2023-05-08T00:33:33.041Z,0.4364
2023-05-08T00:34:34.098Z,0.4358
2023-05-08T00:35:35.193Z,0.4354
2023-05-08T00:36:36.274Z,0.4351
2023-05-08T00:37:37.385Z,0.4358
2023-05-08T00:38:38.513Z,0.4362
2023-05-08T00:39:39.587Z,0.4370
2023-05-08T00:40:40.695Z,0.4370
2023-05-08T00:41:41.789Z,0.4373
2023-05-08T00:42:42.875Z,0.4376
2023-05-08T00:43:44.005Z,0.4377
2023-05-08T00:44:45.075Z,0.4385
2023-05-08T00:45:46.242Z,0.4387
2023-05-08T00:46:47.343Z,0.4376
2023-05-08T00:47:48.398Z,0.4371
2023-05-08T00:48:49.550Z,0.4367
2023-05-08T00:49:50.582Z,0.4338
2023-05-08T00:50:51.682Z,0.4339
2023-05-08T00:51:52.800Z,0.4335
2023-05-08T00:52:53.886Z,0.4334
2023-05-08T00:53:55.019Z,0.4329
2023-05-08T00:54:56.060Z,0.4319
2023-05-08T00:55:57.303Z,0.4327
2023-05-08T00:56:58.295Z,0.4343
2023-05-08T00:57:59.404Z,0.4348
2023-05-08T00:59:00.496Z,0.4355
2023-05-08T01:00:01.574Z,0.4360
2023-05-08T01:01:02.707Z,0.4357
2023-05-08T01:02:03.775Z,0.4356
2023-05-08T01:03:04.946Z,0.4351
2023-05-08T01:04:05.992Z,0.4344
2023-05-08T01:05:07.062Z,0.4331
2023-05-08T01:06:08.207Z,0.4342
2023-05-08T01:07:09.293Z,0.4354
2023-05-08T01:08:10.364Z,0.4363
2023-05-08T01:09:11.485Z,0.4347
2023-05-08T01:10:12.770Z,0.4329
2023-05-08T01:11:13.648Z,0.4325
2023-05-08T01:12:14.765Z,0.4318
2023-05-08T01:13:15.884Z,0.4322
2023-05-08T01:14:16.958Z,0.4328
2023-05-08T01:15:18.051Z,0.4341
2023-05-08T01:16:19.219Z,0.4356
2023-05-08T01:17:20.276Z,0.4356
2023-05-08T01:18:21.336Z,0.4354
2023-05-08T01:19:22.458Z,0.4359
2023-05-08T01:20:23.527Z,0.4365
2023-05-08T01:21:24.643Z,0.4387
2023-05-08T01:22:25.727Z,0.4383
2023-05-08T01:23:26.826Z,0.4384
2023-05-08T01:24:27.920Z,0.4375
2023-05-08T01:25:29.060Z,0.4370
2023-05-08T01:26:30.142Z,0.4383
2023-05-08T01:27:31.216Z,0.4397
2023-05-08T01:28:32.319Z,0.4394
2023-05-08T01:29:33.800Z,0.4391
2023-05-08T01:30:34.508Z,0.4379
2023-05-08T01:31:35.612Z,0.4384
2023-05-08T01:32:36.764Z,0.4373
2023-05-08T01:33:37.859Z,0.4378
2023-05-08T01:34:38.954Z,0.4389
2023-05-08T01:35:40.005Z,0.4391
2023-05-08T01:36:41.107Z,0.4380
2023-05-08T01:37:42.215Z,0.4383
2023-05-08T01:38:43.301Z,0.4366
2023-05-08T01:39:44.404Z,0.4343
2023-05-08T01:40:45.488Z,0.4322
2023-05-08T01:41:46.630Z,0.4325
2023-05-08T01:42:47.706Z,0.4327
2023-05-08T01:43:48.815Z,0.4320
2023-05-08T01:44:49.905Z,0.4308
2023-05-08T01:45:50.999Z,0.4301
2023-05-08T01:46:52.198Z,0.4300
2023-05-08T01:47:53.189Z,0.4304
2023-05-08T01:48:54.292Z,0.4307
2023-05-08T01:49:55.385Z,0.4308
2023-05-08T01:50:56.474Z,0.4302
2023-05-08T01:51:57.581Z,0.4303
2023-05-08T01:52:58.679Z,0.4299
2023-05-08T01:53:59.801Z,0.4297
2023-05-08T01:55:00.874Z,0.4295
2023-05-08T01:56:01.949Z,0.4300
2023-05-08T01:57:03.058Z,0.4307
2023-05-08T01:58:04.162Z,0.4306
2023-05-08T01:59:05.237Z,0.4310
2023-05-08T02:00:06.346Z,0.4308
2023-05-08T02:01:07.528Z,0.4298
2023-05-08T02:02:08.589Z,0.4294
2023-05-08T02:03:09.719Z,0.4300
2023-05-08T02:04:10.767Z,0.4305
2023-05-08T02:05:11.868Z,0.4311
2023-05-08T02:06:12.927Z,0.4325
2023-05-08T02:07:14.052Z,0.4334
2023-05-08T02:08:15.155Z,0.4328
2023-05-08T02:09:16.242Z,0.4323
2023-05-08T02:10:25.322Z,0.4352
2023-05-08T02:11:18.431Z,0.4383
2023-05-08T02:12:19.546Z,0.4386
2023-05-08T02:13:20.780Z,0.4382
2023-05-08T02:14:21.741Z,0.4364
2023-05-08T02:15:22.846Z,0.4371
2023-05-08T02:16:23.975Z,0.4358
2023-05-08T02:17:25.060Z,0.4363
2023-05-08T02:18:26.140Z,0.4377
2023-05-08T02:19:27.248Z,0.4369
2023-05-08T02:20:28.418Z,0.4368
2023-05-08T02:21:29.512Z,0.4390
2023-05-08T02:22:30.617Z,0.4389
2023-05-08T02:23:31.725Z,0.4373
2023-05-08T02:24:32.798Z,0.4362
2023-05-08T02:25:33.905Z,0.4368
2023-05-08T02:26:35.016Z,0.4370
2023-05-08T02:27:36.143Z,0.4372
2023-05-08T02:28:37.235Z,0.4371
2023-05-08T02:29:38.329Z,0.4363
2023-05-08T02:30:39.436Z,0.4360
2023-05-08T02:31:40.584Z,0.4368
2023-05-08T02:32:41.656Z,0.4371
2023-05-08T02:33:42.735Z,0.4360
2023-05-08T02:34:54.920Z,0.4345
2023-05-08T02:35:45.933Z,0.4354
2023-05-08T02:36:46.013Z,0.4355
2023-05-08T02:37:47.133Z,0.4354
2023-05-08T02:38:48.220Z,0.4367
2023-05-08T02:39:49.314Z,0.4388
2023-05-08T02:40:50.434Z,0.4383
2023-05-08T02:41:51.542Z,0.4402
2023-05-08T02:42:52.648Z,0.4409
2023-05-08T02:43:53.731Z,0.4406
2023-05-08T02:44:54.853Z,0.4390
2023-05-08T02:45:55.941Z,0.4394
2023-05-08T02:46:57.041Z,0.4396
2023-05-08T02:47:58.138Z,0.4391
2023-05-08T02:48:59.228Z,0.4389
2023-05-08T02:50:00.419Z,0.4384
2023-05-08T02:51:01.417Z,0.4383
2023-05-08T02:52:02.529Z,0.4371
2023-05-08T02:53:03.648Z,0.4372
2023-05-08T02:54:04.734Z,0.4387
2023-05-08T02:55:05.808Z,0.4405
2023-05-08T02:56:06.918Z,0.4404
2023-05-08T02:57:08.011Z,0.4398
2023-05-08T02:58:09.099Z,0.4396
2023-05-08T02:59:10.216Z,0.4398
2023-05-08T03:00:11.483Z,0.4409
2023-05-08T03:01:12.418Z,0.4417
2023-05-08T03:02:13.555Z,0.4430
2023-05-08T03:03:14.669Z,0.4445
2023-05-08T03:04:15.712Z,0.4454
2023-05-08T03:05:16.809Z,0.4458
2023-05-08T03:06:17.899Z,0.4464
2023-05-08T03:07:19.011Z,0.4459
2023-05-08T03:08:20.086Z,0.4453
2023-05-08T03:09:21.228Z,0.4475
2023-05-08T03:10:22.283Z,0.4469
2023-05-08T03:11:23.408Z,0.4452
2023-05-08T03:12:24.485Z,0.4470
2023-05-08T03:13:25.626Z,0.4481
2023-05-08T03:14:26.693Z,0.4456
2023-05-08T03:15:27.779Z,0.4466
2023-05-08T03:16:28.954Z,0.4463
2023-05-08T03:17:30.022Z,0.4424
2023-05-08T03:18:31.078Z,0.4406
2023-05-08T03:19:32.146Z,0.4397
2023-05-08T03:20:33.249Z,0.4398
2023-05-08T03:21:34.386Z,0.4392
2023-05-08T03:22:35.461Z,0.4377
2023-05-08T03:23:36.545Z,0.4375
2023-05-08T03:24:37.665Z,0.4386
2023-05-08T03:25:38.753Z,0.4408
2023-05-08T03:26:39.859Z,0.4416
2023-05-08T03:27:40.985Z,0.4430
2023-05-08T03:28:42.106Z,0.4428
2023-05-08T03:29:43.174Z,0.4424
2023-05-08T03:30:44.301Z,0.4407
2023-05-08T03:31:45.392Z,0.4408
2023-05-08T03:32:46.511Z,0.4442
2023-05-08T03:33:47.590Z,0.4440
2023-05-08T03:34:48.683Z,0.4433
2023-05-08T03:35:49.826Z,0.4436
2023-05-08T03:36:50.885Z,0.4441
2023-05-08T03:37:52.028Z,0.4447
2023-05-08T03:38:53.086Z,0.4453
2023-05-08T03:39:54.202Z,0.4473
2023-05-08T03:40:55.343Z,0.4470
2023-05-08T03:41:56.404Z,0.4468
2023-05-08T03:42:57.541Z,0.4482
2023-05-08T03:43:58.643Z,0.4505
2023-05-08T03:44:59.703Z,0.4495
2023-05-08T03:46:00.805Z,0.4474
2023-05-08T03:47:02.005Z,0.4481
2023-05-08T03:48:03.052Z,0.4496
2023-05-08T03:49:04.142Z,0.4508
2023-05-08T03:50:05.229Z,0.4520
2023-05-08T03:51:06.362Z,0.4522
2023-05-08T03:52:07.438Z,0.4525
2023-05-08T03:53:08.573Z,0.4526
2023-05-08T03:54:09.634Z,0.4513
2023-05-08T03:55:10.763Z,0.4497
2023-05-08T03:56:11.858Z,0.4493
2023-05-08T03:57:12.951Z,0.4492
2023-05-08T03:58:14.078Z,0.4462
2023-05-08T03:59:15.212Z,0.4478
2023-05-08T04:00:16.267Z,0.4461
2023-05-08T04:01:17.405Z,0.4461
2023-05-08T04:02:18.592Z,0.4456
2023-05-08T04:03:19.677Z,0.4478
2023-05-08T04:04:20.785Z,0.4476
2023-05-08T04:05:21.780Z,0.4472
2023-05-08T04:06:22.885Z,0.4479
2023-05-08T04:07:23.961Z,0.4468
2023-05-08T04:08:25.103Z,0.4478
2023-05-08T04:09:26.188Z,0.4487
2023-05-08T04:10:27.280Z,0.4471
2023-05-08T04:11:28.368Z,0.4449
2023-05-08T04:12:29.480Z,0.4443
2023-05-08T04:13:30.830Z,0.4434
2023-05-08T04:14:31.687Z,0.4437
2023-05-08T04:15:32.766Z,0.4427
2023-05-08T04:16:33.909Z,0.4420
2023-05-08T04:17:35.034Z,0.4423
2023-05-08T04:18:36.069Z,0.4437
2023-05-08T04:19:37.177Z,0.4447
2023-05-08T04:20:38.282Z,0.4435
2023-05-08T04:21:39.364Z,0.4441
2023-05-08T04:22:40.481Z,0.4439
2023-05-08T04:23:41.578Z,0.4435
2023-05-08T04:24:42.664Z,0.4454
2023-05-08T04:25:43.755Z,0.4470
2023-05-08T04:26:44.856Z,0.4465
2023-05-08T04:27:45.966Z,0.4492
2023-05-08T04:28:47.083Z,0.4519
2023-05-08T04:29:48.213Z,0.4516
2023-05-08T04:30:49.282Z,0.4510
2023-05-08T04:31:50.405Z,0.4498
2023-05-08T04:32:51.529Z,0.4497
2023-05-08T04:33:52.564Z,0.4516
2023-05-08T04:34:53.658Z,0.4496
2023-05-08T04:35:54.745Z,0.4504
2023-05-08T04:36:55.844Z,0.4492
2023-05-08T04:37:56.965Z,0.4481
2023-05-08T04:38:59.140Z,0.4496
2023-05-08T04:39:59.168Z,0.4487
2023-05-08T04:41:00.286Z,0.4499
2023-05-08T04:42:01.356Z,0.4501
2023-05-08T04:43:02.452Z,0.4512
2023-05-08T04:44:03.561Z,0.4490
2023-05-08T04:45:04.661Z,0.4473
2023-05-08T04:46:05.837Z,0.4476
2023-05-08T04:47:06.834Z,0.4471
2023-05-08T04:48:08.001Z,0.4462
2023-05-08T04:49:09.043Z,0.4444
2023-05-08T04:50:10.126Z,0.4418
2023-05-08T04:51:11.236Z,0.4399
2023-05-08T04:52:12.323Z,0.4369
2023-05-08T04:53:13.440Z,0.4349
2023-05-08T04:54:14.543Z,0.4328
2023-05-08T04:55:15.607Z,0.4311
2023-05-08T04:56:16.721Z,0.4326
2023-05-08T04:57:17.816Z,0.4313
2023-05-08T04:58:18.909Z,0.4326
2023-05-08T04:59:20.009Z,0.4326
2023-05-08T05:00:21.107Z,0.4315
2023-05-08T05:01:22.221Z,0.4315
2023-05-08T05:02:23.306Z,0.4292
2023-05-08T05:03:24.521Z,0.4299
2023-05-08T05:04:25.499Z,0.4306
2023-05-08T05:05:26.595Z,0.4307
2023-05-08T05:06:27.696Z,0.4311
2023-05-08T05:07:28.807Z,0.4304
2023-05-08T05:08:29.910Z,0.4302
2023-05-08T05:09:31.020Z,0.4310
2023-05-08T05:10:32.101Z,0.4351
2023-05-08T05:11:33.189Z,0.4368
2023-05-08T05:12:34.277Z,0.4387
2023-05-08T05:13:35.393Z,0.4387
2023-05-08T05:14:36.523Z,0.4396
2023-05-08T05:15:37.583Z,0.4400
2023-05-08T05:16:38.783Z,0.4395
2023-05-08T05:17:39.817Z,0.4396
2023-05-08T05:18:40.912Z,0.4401
2023-05-08T05:19:42.018Z,0.4408
2023-05-08T05:20:43.094Z,0.4408
2023-05-08T05:21:44.196Z,0.4402
2023-05-08T05:22:45.305Z,0.4398
2023-05-08T05:23:46.386Z,0.4401
2023-05-08T05:24:47.504Z,0.4399
2023-05-08T05:25:48.607Z,0.4393
2023-05-08T05:26:49.704Z,0.4411
2023-05-08T05:27:50.798Z,0.4425
2023-05-08T05:28:51.900Z,0.4450
2023-05-08T05:29:53.010Z,0.4435
2023-05-08T05:30:54.090Z,0.4435
2023-05-08T05:31:55.208Z,0.4429
2023-05-08T05:32:56.327Z,0.4425
2023-05-08T05:33:57.374Z,0.4404
2023-05-08T05:34:58.485Z,0.4396
2023-05-08T05:35:59.576Z,0.4383
2023-05-08T05:37:00.678Z,0.4364
2023-05-08T05:38:01.777Z,0.4362
2023-05-08T05:39:02.883Z,0.4361
2023-05-08T05:40:03.986Z,0.4356
2023-05-08T05:41:05.074Z,0.4368
2023-05-08T05:42:06.193Z,0.4371
2023-05-08T05:43:07.277Z,0.4391
2023-05-08T05:44:08.394Z,0.4389
2023-05-08T05:45:09.489Z,0.4399
2023-05-08T05:46:10.574Z,0.4414
2023-05-08T05:47:11.815Z,0.4438
2023-05-08T05:48:12.902Z,0.4469
2023-05-08T05:49:13.881Z,0.4471
2023-05-08T05:50:15.052Z,0.4484
2023-05-08T05:51:16.093Z,0.4495
2023-05-08T05:52:17.190Z,0.4511
2023-05-08T05:53:18.265Z,0.4512
2023-05-08T05:54:19.357Z,0.4527
2023-05-08T05:55:20.480Z,0.4534
2023-05-08T05:56:21.557Z,0.4543
2023-05-08T05:57:22.661Z,0.4542
2023-05-08T05:58:23.754Z,0.4522
2023-05-08T05:59:24.850Z,0.4510
2023-05-08T06:00:25.947Z,0.4498
2023-05-08T06:01:27.050Z,0.4513
2023-05-08T06:02:28.239Z,0.4520
2023-05-08T06:03:29.308Z,0.4523
2023-05-08T06:04:30.510Z,0.4529
2023-05-08T06:05:31.469Z,0.4512
2023-05-08T06:06:32.551Z,0.4496
2023-05-08T06:07:33.645Z,0.4497
2023-05-08T06:08:34.756Z,0.4493
2023-05-08T06:09:35.848Z,0.4503
2023-05-08T06:10:36.957Z,0.4502
2023-05-08T06:11:38.035Z,0.4533
2023-05-08T06:12:39.212Z,0.4537
2023-05-08T06:13:40.242Z,0.4544
2023-05-08T06:14:41.320Z,0.4553
2023-05-08T06:15:42.452Z,0.4547
2023-05-08T06:16:43.655Z,0.4547
2023-05-08T06:17:44.686Z,0.4595
2023-05-08T06:18:45.724Z,0.4589
2023-05-08T06:19:46.816Z,0.4590
2023-05-08T06:20:48.009Z,0.4596
2023-05-08T06:21:49.096Z,0.4589
2023-05-08T06:22:50.205Z,0.4575
2023-05-08T06:23:51.300Z,0.4566
2023-05-08T06:24:52.393Z,0.4573
2023-05-08T06:25:53.502Z,0.4613
2023-05-08T06:26:54.592Z,0.4643
2023-05-08T06:27:55.694Z,0.4652
2023-05-08T06:28:56.803Z,0.4636
2023-05-08T06:29:57.915Z,0.4639
2023-05-08T06:30:59.065Z,0.4629
2023-05-08T06:32:00.132Z,0.4657
2023-05-08T06:33:01.325Z,0.4675
2023-05-08T06:34:02.271Z,0.4670
2023-05-08T06:35:03.395Z,0.4661
2023-05-08T06:36:04.491Z,0.4665
2023-05-08T06:37:05.579Z,0.4693
2023-05-08T06:38:06.674Z,0.4690
2023-05-08T06:39:07.798Z,0.4698
2023-05-08T06:40:12.694Z,0.4718
2023-05-08T06:41:09.992Z,0.4752
2023-05-08T06:42:11.074Z,0.4762
2023-05-08T06:43:12.170Z,0.4772
2023-05-08T06:44:13.270Z,0.4772
2023-05-08T06:45:14.582Z,0.4779
2023-05-08T06:46:15.555Z,0.4795
2023-05-08T06:47:16.700Z,0.4821
2023-05-08T06:48:17.656Z,0.4809
2023-05-08T06:49:18.774Z,0.4812
2023-05-08T06:50:19.867Z,0.4796
2023-05-08T06:51:20.955Z,0.4784
2023-05-08T06:52:22.049Z,0.4766
2023-05-08T06:53:23.161Z,0.4777
2023-05-08T06:54:24.248Z,0.4791
2023-05-08T06:55:25.366Z,0.4781
2023-05-08T06:56:26.465Z,0.4771
2023-05-08T06:57:27.549Z,0.4798
2023-05-08T06:58:28.645Z,0.4797
2023-05-08T06:59:29.742Z,0.4799
2023-05-08T07:00:30.872Z,0.4788
2023-05-08T07:01:32.006Z,0.4806
2023-05-08T07:02:33.117Z,0.4826
2023-05-08T07:03:34.139Z,0.4825
2023-05-08T07:04:35.285Z,0.4793
2023-05-08T07:05:36.337Z,0.4769
2023-05-08T07:06:37.458Z,0.4740
2023-05-08T07:07:38.540Z,0.4721
2023-05-08T07:08:39.624Z,0.4722
2023-05-08T07:09:40.734Z,0.4733
2023-05-08T07:10:41.845Z,0.4745
2023-05-08T07:11:42.939Z,0.4735
2023-05-08T07:12:44.077Z,0.4721
2023-05-08T07:13:45.145Z,0.4727
2023-05-08T07:14:46.242Z,0.4730
2023-05-08T07:15:47.339Z,0.4754
2023-05-08T07:16:48.458Z,0.4750
2023-05-08T07:17:49.583Z,0.4749
2023-05-08T07:18:50.620Z,0.4745
2023-05-08T07:19:51.719Z,0.4739
2023-05-08T07:20:52.826Z,0.4738
2023-05-08T07:21:53.944Z,0.4750
2023-05-08T07:22:54.987Z,0.4749
2023-05-08T07:23:56.101Z,0.4748
2023-05-08T07:24:57.222Z,0.4748
2023-05-08T07:25:58.285Z,0.4739
2023-05-08T07:26:59.399Z,0.4736
2023-05-08T07:28:01.504Z,0.4722
2023-05-08T07:29:01.573Z,0.4721
2023-05-08T07:30:02.682Z,0.4707
2023-05-08T07:31:03.861Z,0.4724
2023-05-08T07:32:04.954Z,0.4720
2023-05-08T07:33:06.050Z,0.4721
2023-05-08T07:34:07.058Z,0.4716
2023-05-08T07:35:09.752Z,0.4717
2023-05-08T07:36:09.236Z,0.4731
2023-05-08T07:37:10.375Z,0.4731
2023-05-08T07:38:11.455Z,0.4721
2023-05-08T07:39:12.558Z,0.4697
2023-05-08T07:40:13.644Z,0.4683
2023-05-08T07:41:14.783Z,0.4687
2023-05-08T07:42:15.861Z,0.4685
2023-05-08T07:43:16.914Z,0.4698
2023-05-08T07:44:18.060Z,0.4696
2023-05-08T07:45:19.119Z,0.4722
2023-05-08T07:46:20.229Z,0.4707
2023-05-08T07:47:21.322Z,0.4680
2023-05-08T07:48:22.477Z,0.4641
2023-05-08T07:49:23.487Z,0.4640
2023-05-08T07:50:24.573Z,0.4643
2023-05-08T07:51:25.684Z,0.4639
2023-05-08T07:52:26.785Z,0.4629
2023-05-08T07:53:27.854Z,0.4622
2023-05-08T07:54:28.953Z,0.4632
2023-05-08T07:55:30.061Z,0.4622
2023-05-08T07:56:31.142Z,0.4628
2023-05-08T07:57:32.246Z,0.4652
2023-05-08T07:58:33.354Z,0.4618
2023-05-08T07:59:34.458Z,0.4597
2023-05-08T08:00:35.516Z,0.4597
2023-05-08T08:01:36.727Z,0.4603
2023-05-08T08:02:37.845Z,0.4597
2023-05-08T08:03:38.988Z,0.4608
2023-05-08T08:04:40.020Z,0.4603
2023-05-08T08:05:41.030Z,0.4629
2023-05-08T08:06:42.101Z,0.4636
2023-05-08T08:07:43.229Z,0.4628
2023-05-08T08:08:44.298Z,0.4619
2023-05-08T08:09:45.398Z,0.4654
2023-05-08T08:10:46.479Z,0.4660
2023-05-08T08:11:47.583Z,0.4649
2023-05-08T08:12:48.769Z,0.4628
2023-05-08T08:13:49.781Z,0.4617
2023-05-08T08:14:50.875Z,0.4603
2023-05-08T08:15:52.022Z,0.4585
2023-05-08T08:16:53.135Z,0.4593
2023-05-08T08:17:54.239Z,0.4556
2023-05-08T08:18:55.369Z,0.4533
2023-05-08T08:19:56.402Z,0.4544
2023-05-08T08:20:57.482Z,0.4543
2023-05-08T08:21:58.568Z,0.4537
2023-05-08T08:22:59.666Z,0.4561
2023-05-08T08:24:00.759Z,0.4552
2023-05-08T08:25:01.872Z,0.4547
2023-05-08T08:26:02.977Z,0.4540
2023-05-08T08:27:04.062Z,0.4529
2023-05-08T08:28:05.185Z,0.4526
2023-05-08T08:29:06.259Z,0.4543
2023-05-08T08:30:16.695Z,0.4539
2023-05-08T08:31:09.481Z,0.4542
2023-05-08T08:32:09.562Z,0.4548
2023-05-08T08:33:10.761Z,0.4572
2023-05-08T08:34:11.860Z,0.4590
2023-05-08T08:35:13.376Z,0.4604
2023-05-08T08:36:13.973Z,0.4623
2023-05-08T08:37:15.059Z,0.4642
2023-05-08T08:38:16.184Z,0.4668
2023-05-08T08:39:17.262Z,0.4694
2023-05-08T08:40:18.392Z,0.4698
2023-05-08T08:41:19.470Z,0.4695
2023-05-08T08:42:20.596Z,0.4672
2023-05-08T08:43:21.682Z,0.4660
2023-05-08T08:44:22.763Z,0.4673
2023-05-08T08:45:23.877Z,0.4710
2023-05-08T08:46:25.014Z,0.4736
2023-05-08T08:47:26.108Z,0.4741
2023-05-08T08:48:27.170Z,0.4758
2023-05-08T08:49:28.360Z,0.4772
2023-05-08T08:50:29.389Z,0.4762
2023-05-08T08:51:30.474Z,0.4758
2023-05-08T08:52:31.585Z,0.4772
2023-05-08T08:53:32.692Z,0.4778
2023-05-08T08:54:33.770Z,0.4777
2023-05-08T08:55:34.872Z,0.4802
2023-05-08T08:56:36.014Z,0.4819
2023-05-08T08:57:37.099Z,0.4855
2023-05-08T08:58:39.250Z,0.4860
2023-05-08T08:59:39.287Z,0.4853
2023-05-08T09:00:40.395Z,0.4845
2023-05-08T09:01:41.500Z,0.4858
2023-05-08T09:02:42.647Z,0.4869
2023-05-08T09:03:43.799Z,0.4861
2023-05-08T09:04:44.847Z,0.4869
2023-05-08T09:05:45.884Z,0.4874
2023-05-08T09:06:46.968Z,0.4871
2023-05-08T09:07:48.076Z,0.4837
2023-05-08T09:08:49.200Z,0.4799
2023-05-08T09:09:50.270Z,0.4789
2023-05-08T09:10:51.368Z,0.4771
2023-05-08T09:11:52.502Z,0.4748
2023-05-08T09:12:53.590Z,0.4751
2023-05-08T09:13:54.685Z,0.4771
2023-05-08T09:14:55.789Z,0.4798
2023-05-08T09:15:56.895Z,0.4804
2023-05-08T09:16:57.987Z,0.4771
2023-05-08T09:17:59.171Z,0.4754
2023-05-08T09:19:00.184Z,0.4727
2023-05-08T09:20:01.374Z,0.4711
2023-05-08T09:21:02.394Z,0.4701
2023-05-08T09:22:03.493Z,0.4672
2023-05-08T09:23:04.673Z,0.4660
2023-05-08T09:24:05.695Z,0.4658
2023-05-08T09:25:06.785Z,0.4663
2023-05-08T09:26:07.893Z,0.4680
2023-05-08T09:27:08.982Z,0.4682
2023-05-08T09:28:10.078Z,0.4672
2023-05-08T09:29:11.213Z,0.4699
2023-05-08T09:30:12.310Z,0.4689
2023-05-08T09:31:13.402Z,0.4674
2023-05-08T09:32:14.485Z,0.4668
2023-05-08T09:33:15.660Z,0.4676
2023-05-08T09:34:16.675Z,0.4689
2023-05-08T09:35:17.984Z,0.4710
2023-05-08T09:36:18.851Z,0.4718
2023-05-08T09:37:19.963Z,0.4713
2023-05-08T09:38:21.046Z,0.4707
2023-05-08T09:39:22.159Z,0.4714
2023-05-08T09:40:23.287Z,0.4730
2023-05-08T09:41:24.358Z,0.4751
2023-05-08T09:42:25.461Z,0.4784
2023-05-08T09:43:26.562Z,0.4784
2023-05-08T09:44:27.670Z,0.4766
2023-05-08T09:45:28.841Z,0.4774
2023-05-08T09:46:29.887Z,0.4779
2023-05-08T09:47:30.967Z,0.4755
2023-05-08T09:48:32.060Z,0.4744
2023-05-08T09:49:33.148Z,0.4712
2023-05-08T09:50:34.327Z,0.4659
2023-05-08T09:51:35.344Z,0.4639
2023-05-08T09:52:36.497Z,0.4622
2023-05-08T09:53:37.548Z,0.4614
2023-05-08T09:54:38.640Z,0.4611
2023-05-08T09:55:39.729Z,0.4584
2023-05-08T09:56:40.843Z,0.4550
2023-05-08T09:57:41.926Z,0.4552
2023-05-08T09:58:43.074Z,0.4561
2023-05-08T09:59:44.142Z,0.4545
2023-05-08T10:00:45.281Z,0.4542
2023-05-08T10:01:46.345Z,0.4536
2023-05-08T10:02:47.462Z,0.4544
2023-05-08T10:03:48.593Z,0.4533
2023-05-08T10:04:49.685Z,0.4534
2023-05-08T10:05:50.840Z,0.4568
2023-05-08T10:06:52.357Z,0.4595
2023-05-08T10:07:52.960Z,0.4607
2023-05-08T10:08:54.055Z,0.4625
2023-05-08T10:09:55.180Z,0.4636
2023-05-08T10:10:56.245Z,0.4615
2023-05-08T10:11:57.348Z,0.4635
2023-05-08T10:12:58.549Z,0.4676
2023-05-08T10:13:59.541Z,0.4708
2023-05-08T10:15:00.665Z,0.4720
2023-05-08T10:16:01.733Z,0.4735
2023-05-08T10:17:02.921Z,0.4751
2023-05-08T10:18:04.088Z,0.4757
2023-05-08T10:19:05.062Z,0.4756
2023-05-08T10:20:06.170Z,0.4756
2023-05-08T10:21:07.332Z,0.4753
2023-05-08T10:22:08.433Z,0.4724
2023-05-08T10:23:09.523Z,0.4712
2023-05-08T10:24:10.638Z,0.4701
2023-05-08T10:25:11.991Z,0.4702
2023-05-08T10:26:12.840Z,0.4720
2023-05-08T10:27:13.939Z,0.4700
2023-05-08T10:28:15.045Z,0.4712
2023-05-08T10:29:16.150Z,0.4710
2023-05-08T10:30:17.274Z,0.4712
2023-05-08T10:31:18.401Z,0.4713
2023-05-08T10:32:19.434Z,0.4722
2023-05-08T10:33:20.559Z,0.4713
2023-05-08T10:34:21.649Z,0.4715
2023-05-08T10:35:22.754Z,0.4713
2023-05-08T10:36:23.927Z,0.4708
2023-05-08T10:37:24.953Z,0.4693
2023-05-08T10:38:26.075Z,0.4679
2023-05-08T10:39:27.156Z,0.4667
2023-05-08T10:40:28.259Z,0.4666
2023-05-08T10:41:29.361Z,0.4657
2023-05-08T10:42:30.462Z,0.4677
2023-05-08T10:43:31.603Z,0.4670
2023-05-08T10:44:32.673Z,0.4686
2023-05-08T10:45:33.787Z,0.4693
2023-05-08T10:46:34.893Z,0.4695
2023-05-08T10:47:36.023Z,0.4689
2023-05-08T10:48:37.105Z,0.4678
2023-05-08T10:49:38.210Z,0.4684
2023-05-08T10:50:39.321Z,0.4704
2023-05-08T10:51:40.423Z,0.4693
2023-05-08T10:52:41.520Z,0.4689
2023-05-08T10:53:42.620Z,0.4699
2023-05-08T10:54:43.719Z,0.4708
2023-05-08T10:55:44.839Z,0.4709
2023-05-08T10:56:45.933Z,0.4701
2023-05-08T10:57:47.031Z,0.4696
2023-05-08T10:58:48.124Z,0.4697
2023-05-08T10:59:49.223Z,0.4689
2023-05-08T11:00:50.314Z,0.4674
2023-05-08T11:01:51.460Z,0.4657
2023-05-08T11:02:52.560Z,0.4654
2023-05-08T11:03:53.682Z,0.4661
2023-05-08T11:04:54.702Z,0.4658
2023-05-08T11:05:55.819Z,0.4674
2023-05-08T11:06:56.925Z,0.4681
2023-05-08T11:07:58.027Z,0.4654
2023-05-08T11:09:00.612Z,0.4651
2023-05-08T11:10:00.209Z,0.4655
2023-05-08T11:11:01.374Z,0.4657
2023-05-08T11:12:02.428Z,0.4670
2023-05-08T11:13:03.539Z,0.4645
2023-05-08T11:14:04.638Z,0.4634
2023-05-08T11:15:05.744Z,0.4641
2023-05-08T11:16:06.912Z,0.4637
2023-05-08T11:17:07.970Z,0.4647
2023-05-08T11:18:09.175Z,0.4666
2023-05-08T11:19:10.142Z,0.4670
2023-05-08T11:20:11.257Z,0.4675
2023-05-08T11:21:12.358Z,0.4667
2023-05-08T11:22:13.479Z,0.4686
2023-05-08T11:23:14.552Z,0.4687
2023-05-08T11:24:15.681Z,0.4679
2023-05-08T11:25:16.795Z,0.4677
2023-05-08T11:26:17.904Z,0.4693
2023-05-08T11:27:18.990Z,0.4682
2023-05-08T11:28:20.109Z,0.4669
2023-05-08T11:29:21.214Z,0.4654
2023-05-08T11:30:22.324Z,0.4660
2023-05-08T11:31:23.493Z,0.4654
2023-05-08T11:32:24.576Z,0.4646
2023-05-08T11:33:25.648Z,0.4642
2023-05-08T11:34:26.753Z,0.4638
2023-05-08T11:35:27.842Z,0.4634
2023-05-08T11:36:29.008Z,0.4625
2023-05-08T11:37:30.053Z,0.4621
2023-05-08T11:38:31.163Z,0.4601
2023-05-08T11:39:32.275Z,0.4591
2023-05-08T11:40:33.369Z,0.4574
2023-05-08T11:41:34.479Z,0.4565
2023-05-08T11:42:35.578Z,0.4550
2023-05-08T11:43:36.721Z,0.4549
2023-05-08T11:44:37.787Z,0.4538
2023-05-08T11:45:38.903Z,0.4533
2023-05-08T11:46:40.076Z,0.4527
2023-05-08T11:47:41.178Z,0.4530
2023-05-08T11:48:42.222Z,0.4530
2023-05-08T11:49:43.323Z,0.4517
2023-05-08T11:50:44.430Z,0.4515
2023-05-08T11:51:45.559Z,0.4520
2023-05-08T11:52:46.636Z,0.4525
2023-05-08T11:53:47.763Z,0.4538
2023-05-08T11:54:48.857Z,0.4531
2023-05-08T11:55:49.961Z,0.4523
2023-05-08T11:56:51.080Z,0.4528
2023-05-08T11:57:52.193Z,0.4538
2023-05-08T11:58:53.295Z,0.4542
2023-05-08T11:59:54.389Z,0.4556
2023-05-08T12:00:55.553Z,0.4563
2023-05-08T12:02:07.559Z,0.4540
2023-05-08T12:02:58.941Z,0.4555
2023-05-08T12:03:59.087Z,0.4555
2023-05-08T12:05:00.010Z,0.4570
2023-05-08T12:06:01.060Z,0.4592
2023-05-08T12:07:02.148Z,0.4596
2023-05-08T12:08:03.237Z,0.4584
2023-05-08T12:09:04.361Z,0.4586
2023-05-08T12:10:05.492Z,0.4580
2023-05-08T12:11:06.557Z,0.4584
2023-05-08T12:12:07.772Z,0.4578
2023-05-08T12:13:08.808Z,0.4579
2023-05-08T12:14:09.866Z,0.4582
2023-05-08T12:15:10.970Z,0.4580
2023-05-08T12:16:12.149Z,0.4599
2023-05-08T12:17:13.236Z,0.4614
2023-05-08T12:18:14.359Z,0.4593
2023-05-08T12:19:15.396Z,0.4564
2023-05-08T12:20:16.871Z,0.4562
2023-05-08T12:21:17.609Z,0.4561
2023-05-08T12:22:18.729Z,0.4566
2023-05-08T12:23:19.819Z,0.4541
2023-05-08T12:24:20.912Z,0.4526
2023-05-08T12:25:22.021Z,0.4547
2023-05-08T12:26:23.130Z,0.4558
2023-05-08T12:27:24.249Z,0.4594
2023-05-08T12:28:25.325Z,0.4596
2023-05-08T12:29:26.446Z,0.4585
2023-05-08T12:30:27.543Z,0.4588
2023-05-08T12:31:28.651Z,0.4596
2023-05-08T12:32:29.775Z,0.4610
2023-05-08T12:33:30.857Z,0.4587
2023-05-08T12:34:32.011Z,0.4578
2023-05-08T12:35:33.091Z,0.4583
2023-05-08T12:36:34.181Z,0.4579
2023-05-08T12:37:35.311Z,0.4618
2023-05-08T12:38:36.462Z,0.4639
2023-05-08T12:39:37.573Z,0.4652
2023-05-08T12:40:38.579Z,0.4680
2023-05-08T12:41:39.714Z,0.4710
2023-05-08T12:42:40.885Z,0.4735